Time;durP1;ratioP1;P1;durP2;ratioP2;P2;SDS_P1;SDS_P2;PMS_P1;PMS_P2;Temp;Humidity;BMP_temperature;BMP_pressure;BME280_temperature;BME280_humidity;BME280_pressure;Samples;Min_cycle;Max_cycle;Signal;HPM_P1;HPM_P2
2023/08/28 00:02:03;;;;;;;0.00;0.00;;;13.10;99.90;;;;;;6215132;23;20512;-84
2023/08/28 00:04:29;;;;;;;0.00;0.00;;;13.00;99.90;;;;;;6215460;23;20428;-86
2023/08/28 00:06:54;;;;;;;0.00;0.00;;;13.10;99.90;;;;;;6215923;23;20001;-85
2023/08/28 00:09:20;;;;;;;0.00;0.00;;;13.10;99.90;;;;;;6215634;23;20000;-82
2023/08/28 00:11:46;;;;;;;0.00;0.00;;;;;;;;;;6213845;23;20027;-85
2023/08/28 00:14:11;;;;;;;0.00;0.00;;;13.00;99.90;;;;;;6214276;23;20146;-83
2023/08/28 00:16:38;;;;;;;0.00;0.00;;;13.00;99.90;;;;;;6189882;23;20027;-85
2023/08/28 00:19:04;;;;;;;0.00;0.00;;;12.90;99.90;;;;;;6215762;23;20032;-86
2023/08/28 00:21:30;;;;;;;0.00;0.00;;;;;;;;;;6215124;23;20100;-85
2023/08/28 00:23:56;;;;;;;0.00;0.00;;;;;;;;;;6242521;23;20008;-84
2023/08/28 00:26:22;;;;;;;0.00;0.00;;;;;;;;;;6214215;23;19996;-84
2023/08/28 00:28:48;;;;;;;0.00;0.00;;;;;;;;;;6214563;23;20378;-85
2023/08/28 00:31:13;;;;;;;0.00;0.00;;;12.90;99.90;;;;;;6244226;23;20007;-83
2023/08/28 00:33:39;;;;;;;0.00;0.00;;;;;;;;;;6217579;23;20040;-83
2023/08/28 00:36:05;;;;;;;0.00;0.00;;;12.90;99.90;;;;;;6244280;23;20011;-84
2023/08/28 00:38:31;;;;;;;0.00;0.00;;;;;;;;;;6215500;23;20510;-82
2023/08/28 00:40:56;;;;;;;0.00;0.00;;;12.90;99.90;;;;;;6217271;23;20004;-84
2023/08/28 00:43:22;;;;;;;0.00;0.00;;;12.90;99.90;;;;;;6216633;23;20081;-84
2023/08/28 00:45:48;;;;;;;0.00;0.00;;;12.90;99.90;;;;;;6215064;23;20000;-84
2023/08/28 00:48:16;;;;;;;0.00;0.00;;;12.90;99.90;;;;;;6216577;23;20343;-83
2023/08/28 00:50:42;;;;;;;0.00;0.00;;;;;;;;;;6216489;23;20008;-85
2023/08/28 00:53:11;;;;;;;0.00;0.00;;;12.90;99.90;;;;;;6217598;23;20008;-84
2023/08/28 00:55:37;;;;;;;0.00;0.00;;;12.90;99.90;;;;;;6243190;23;20075;-85
2023/08/28 00:58:03;;;;;;;0.00;0.00;;;;;;;;;;6216609;23;20028;-83
2023/08/28 01:00:29;;;;;;;0.00;0.00;;;;;;;;;;6216328;23;20347;-84
2023/08/28 01:02:55;;;;;;;0.00;0.00;;;12.90;99.90;;;;;;6213286;23;20057;-85
2023/08/28 01:05:56;;;;;;;0.00;0.00;;;12.90;99.90;;;;;;6214832;23;20436;-83
2023/08/28 01:08:31;;;;;;;0.00;0.00;;;12.90;99.90;;;;;;6178696;23;20000;-86
2023/08/28 01:11:24;;;;;;;0.00;0.00;;;12.90;99.90;;;;;;6217192;23;20000;-84
2023/08/28 01:14:01;;;;;;;0.00;0.00;;;12.90;99.90;;;;;;6216385;23;20095;-85
2023/08/28 01:16:28;;;;;;;0.00;0.00;;;12.90;99.90;;;;;;6243628;23;20004;-84
2023/08/28 01:18:54;;;;;;;0.00;0.00;;;12.90;99.90;;;;;;6243388;22;20008;-85
2023/08/28 01:21:20;;;;;;;0.00;0.00;;;12.90;99.90;;;;;;6217277;23;20004;-85
2023/08/28 01:23:57;;;;;;;0.00;0.00;;;12.90;99.90;;;;;;6215691;23;20012;-82
2023/08/28 01:26:24;;;;;;;0.00;0.00;;;12.90;99.90;;;;;;6216577;23;20015;-84
2023/08/28 01:28:50;;;;;;;0.00;0.00;;;;;;;;;;6242855;22;20007;-85
2023/08/28 01:31:16;;;;;;;0.00;0.00;;;;;;;;;;6216399;23;20004;-84
2023/08/28 01:33:42;;;;;;;0.00;0.00;;;12.90;99.90;;;;;;6242452;23;20007;-83
2023/08/28 01:36:25;;;;;;;0.00;0.00;;;12.90;99.90;;;;;;6217226;23;20086;-85
2023/08/28 01:38:58;;;;;;;0.00;0.00;;;12.90;99.90;;;;;;6243023;22;20010;-84
2023/08/28 01:41:25;;;;;;;0.00;0.00;;;12.90;99.90;;;;;;6216080;23;20012;-83
2023/08/28 01:43:54;;;;;;;0.00;0.00;;;12.80;99.90;;;;;;6214587;23;20342;-84
2023/08/28 01:46:20;;;;;;;0.00;0.00;;;12.80;99.90;;;;;;6216157;23;20004;-85
2023/08/28 01:48:53;;;;;;;0.00;0.00;;;12.80;99.90;;;;;;6241599;22;20008;-84
2023/08/28 01:51:23;;;;;;;0.00;0.00;;;12.70;99.90;;;;;;6216756;23;20351;-85
2023/08/28 01:53:49;;;;;;;0.00;0.00;;;12.70;99.90;;;;;;6212966;23;20004;-81
2023/08/28 01:56:20;;;;;;;0.00;0.00;;;12.70;99.90;;;;;;6244323;23;20079;-83
2023/08/28 01:58:49;;;;;;;0.00;0.00;;;12.70;99.90;;;;;;6217398;23;20012;-83
2023/08/28 02:01:15;;;;;;;0.00;0.00;;;;;;;;;;6217625;23;20031;-83
2023/08/28 02:03:41;;;;;;;0.00;0.00;;;;;;;;;;6217887;23;20575;-83
2023/08/28 02:06:08;;;;;;;0.00;0.00;;;12.60;99.90;;;;;;6217437;23;20087;-83
2023/08/28 02:08:34;;;;;;;0.00;0.00;;;;;;;;;;6216998;23;20424;-83
2023/08/28 02:11:00;;;;;;;0.00;0.00;;;;;;;;;;6218162;23;20065;-83
2023/08/28 02:13:26;;;;;;;0.00;0.00;;;;;;;;;;6217619;23;20094;-83
2023/08/28 02:15:52;;;;;;;0.00;0.00;;;;;;;;;;6243978;23;20008;-83
2023/08/28 02:18:17;;;;;;;0.00;0.00;;;12.50;99.90;;;;;;6217339;23;20446;-83
2023/08/28 02:20:44;;;;;;;0.00;0.00;;;12.50;99.90;;;;;;6244597;23;20026;-83
2023/08/28 02:23:10;;;;;;;0.00;0.00;;;;;;;;;;6217366;23;20010;-83
2023/08/28 02:25:46;;;;;;;0.00;0.00;;;12.50;99.90;;;;;;6216855;23;20079;-83
2023/08/28 02:28:12;;;;;;;0.00;0.00;;;12.50;99.90;;;;;;6216052;23;20007;-82
2023/08/28 02:30:38;;;;;;;0.00;0.00;;;;;;;;;;6243926;23;20000;-83
2023/08/28 02:33:04;;;;;;;0.00;0.00;;;12.50;99.90;;;;;;6216576;23;20009;-82
2023/08/28 02:35:30;;;;;;;0.00;0.00;;;;;;;;;;6216549;23;20007;-84
2023/08/28 02:37:56;;;;;;;0.00;0.00;;;;;;;;;;6216917;22;20031;-84
2023/08/28 02:40:21;;;;;;;0.00;0.00;;;12.50;99.90;;;;;;6216588;23;20049;-83
2023/08/28 02:42:47;;;;;;;0.00;0.00;;;12.60;99.90;;;;;;6216185;23;20004;-84
2023/08/28 02:45:13;;;;;;;0.00;0.00;;;;;;;;;;6216173;23;20427;-82
2023/08/28 02:47:39;;;;;;;0.00;0.00;;;;;;;;;;6216827;22;20454;-84
2023/08/28 02:50:05;;;;;;;0.00;0.00;;;12.50;99.90;;;;;;6216038;23;20427;-84
2023/08/28 02:52:31;;;;;;;0.00;0.00;;;;;;;;;;6216540;23;20000;-85
2023/08/28 02:54:56;;;;;;;0.00;0.00;;;12.40;99.90;;;;;;6215410;23;20014;-84
2023/08/28 02:57:22;;;;;;;0.00;0.00;;;12.40;99.90;;;;;;6216448;23;20011;-86
2023/08/28 02:59:48;;;;;;;0.00;0.00;;;12.40;99.90;;;;;;6215738;23;20083;-85
2023/08/28 03:02:13;;;;;;;0.00;0.00;;;12.40;99.90;;;;;;6215878;23;20521;-85
2023/08/28 03:04:42;;;;;;;0.00;0.00;;;;;;;;;;6239914;23;20026;-85
2023/08/28 03:07:08;;;;;;;0.00;0.00;;;12.40;99.90;;;;;;6216878;23;20008;-87
2023/08/28 03:09:33;;;;;;;0.00;0.00;;;12.30;99.90;;;;;;6215919;23;20446;-85
2023/08/28 03:11:59;;;;;;;0.00;0.00;;;12.30;99.90;;;;;;6216565;23;20008;-85
2023/08/28 03:14:24;;;;;;;0.00;0.00;;;12.30;99.90;;;;;;6214748;23;19996;-85
2023/08/28 03:16:50;;;;;;;0.00;0.00;;;;;;;;;;6215438;23;20027;-85
2023/08/28 03:19:16;;;;;;;0.00;0.00;;;12.30;99.90;;;;;;6216193;23;19996;-85
2023/08/28 03:21:41;;;;;;;0.00;0.00;;;12.30;99.90;;;;;;6216748;23;20079;-84
2023/08/28 03:24:07;;;;;;;0.05;0.05;;;12.30;99.90;;;;;;6215275;23;20010;-85
2023/08/28 03:26:33;;;;;;;0.00;0.00;;;12.20;99.90;;;;;;6215713;23;20026;-84
2023/08/28 03:28:59;;;;;;;0.00;0.00;;;12.20;99.90;;;;;;6215548;23;20063;-84
2023/08/28 03:31:26;;;;;;;0.00;0.00;;;12.20;99.90;;;;;;6242625;23;20004;-86
2023/08/28 03:33:51;;;;;;;0.00;0.00;;;12.20;99.90;;;;;;6214531;23;20087;-82
2023/08/28 03:36:17;;;;;;;0.00;0.00;;;;;;;;;;6215986;23;20042;-85
2023/08/28 03:38:43;;;;;;;0.00;0.00;;;12.20;99.90;;;;;;6214050;23;20004;-84
2023/08/28 03:41:09;;;;;;;0.00;0.00;;;12.20;99.90;;;;;;6216319;23;20745;-85
2023/08/28 03:43:35;;;;;;;0.00;0.00;;;12.20;99.90;;;;;;6216176;23;20038;-85
2023/08/28 03:46:01;;;;;;;0.00;0.00;;;;;;;;;;6216422;23;20004;-84
2023/08/28 03:48:26;;;;;;;0.00;0.00;;;12.20;99.90;;;;;;6214954;23;20403;-85
2023/08/28 03:50:52;;;;;;;0.00;0.00;;;;;;;;;;6216256;23;20000;-84
2023/08/28 03:53:18;;;;;;;0.00;0.00;;;12.20;99.90;;;;;;6216244;23;20526;-85
2023/08/28 03:55:43;;;;;;;0.00;0.00;;;12.20;99.90;;;;;;6216837;23;20010;-85
2023/08/28 03:58:09;;;;;;;0.00;0.00;;;;;;;;;;6214039;23;20466;-84
2023/08/28 04:00:35;;;;;;;0.00;0.00;;;;;;;;;;6215212;23;20014;-84
2023/08/28 04:03:02;;;;;;;0.00;0.00;;;;;;;;;;6213795;23;20446;-84
2023/08/28 04:05:28;;;;;;;0.00;0.00;;;12.10;99.90;;;;;;6219242;23;20000;-84
2023/08/28 04:07:54;;;;;;;0.00;0.00;;;12.10;99.90;;;;;;6239970;22;20000;-80
2023/08/28 04:10:20;;;;;;;0.00;0.00;;;12.10;99.90;;;;;;6242395;23;20064;-90
2023/08/28 04:12:45;;;;;;;0.00;0.00;;;12.10;99.90;;;;;;6219985;23;20036;-90
2023/08/28 04:15:11;;;;;;;0.00;0.00;;;12.10;99.90;;;;;;6219838;23;20012;-89
2023/08/28 04:17:38;;;;;;;0.00;0.00;;;;;;;;;;6220325;22;20011;-89
2023/08/28 04:20:14;;;;;;;0.00;0.00;;;11.90;99.90;;;;;;6220015;23;20008;-86
2023/08/28 04:22:44;;;;;;;0.00;0.00;;;12.00;99.90;;;;;;6219528;23;20039;-88
2023/08/28 04:25:11;;;;;;;0.00;0.00;;;11.90;99.90;;;;;;6194404;23;20019;-86
2023/08/28 04:27:37;;;;;;;0.00;0.00;;;;;;;;;;6218006;22;20440;-90
2023/08/28 04:30:04;;;;;;;0.00;0.00;;;11.90;99.90;;;;;;6217553;23;20000;-83
2023/08/28 04:32:29;;;;;;;0.00;0.00;;;11.90;99.90;;;;;;6246247;23;20008;-88
2023/08/28 04:34:55;;;;;;;0.00;0.00;;;11.90;99.90;;;;;;6218298;23;20051;-88
2023/08/28 04:37:21;;;;;;;0.05;0.05;;;;;;;;;;6215951;23;20008;-86
2023/08/28 04:39:47;;;;;;;0.00;0.00;;;;;;;;;;6217523;23;20727;-86
2023/08/28 04:42:14;;;;;;;0.00;0.00;;;11.90;99.90;;;;;;6218787;23;20007;-88
2023/08/28 04:44:40;;;;;;;0.00;0.00;;;;;;;;;;6217451;23;20039;-86
2023/08/28 04:47:06;;;;;;;0.00;0.00;;;12.00;99.90;;;;;;6218584;23;20011;-82
2023/08/28 04:49:31;;;;;;;0.00;0.00;;;;;;;;;;6217863;23;20000;-87
2023/08/28 04:51:57;;;;;;;0.00;0.00;;;;;;;;;;6218367;23;20012;-88
2023/08/28 04:54:23;;;;;;;0.00;0.00;;;;;;;;;;6218099;23;20019;-85
2023/08/28 04:56:49;;;;;;;0.00;0.00;;;;;;;;;;6244618;23;20004;-87
2023/08/28 04:59:15;;;;;;;0.00;0.00;;;;;;;;;;6217723;23;20042;-83
2023/08/28 05:01:41;;;;;;;0.00;0.00;;;11.90;99.90;;;;;;6217639;23;20004;-85
2023/08/28 05:04:07;;;;;;;0.00;0.00;;;11.90;99.90;;;;;;6216816;23;20027;-83
2023/08/28 05:06:33;;;;;;;0.00;0.00;;;;;;;;;;6218608;23;20536;-86
2023/08/28 05:08:58;;;;;;;0.00;0.00;;;11.90;99.90;;;;;;6217558;23;20446;-86
2023/08/28 05:11:24;;;;;;;0.00;0.00;;;11.90;99.90;;;;;;6217079;23;20000;-84
2023/08/28 05:13:54;;;;;;;0.00;0.00;;;11.90;99.90;;;;;;6244861;23;20026;-85
2023/08/28 05:16:20;;;;;;;0.00;0.00;;;11.90;99.90;;;;;;6217224;23;20004;-86
2023/08/28 05:18:46;;;;;;;0.00;0.00;;;;;;;;;;6216987;23;20011;-85
2023/08/28 05:21:11;;;;;;;0.00;0.00;;;11.90;99.90;;;;;;6244078;23;20004;-83
2023/08/28 05:23:37;;;;;;;0.00;0.00;;;11.80;99.90;;;;;;6217754;23;20088;-85
2023/08/28 05:26:03;;;;;;;0.00;0.00;;;11.90;99.90;;;;;;6216438;23;20343;-85
2023/08/28 05:28:31;;;;;;;0.00;0.00;;;11.90;99.90;;;;;;6243917;22;20004;-86
2023/08/28 05:30:57;;;;;;;0.00;0.00;;;11.90;99.90;;;;;;6217173;23;20394;-82
2023/08/28 05:33:23;;;;;;;0.00;0.00;;;;;;;;;;6217552;23;20012;-85
2023/08/28 05:35:50;;;;;;;0.00;0.00;;;12.00;99.90;;;;;;6217773;23;20635;-86
2023/08/28 05:38:16;;;;;;;0.00;0.00;;;;;;;;;;6217594;23;20008;-84
2023/08/28 05:40:41;;;;;;;0.00;0.00;;;12.10;99.90;;;;;;6218134;23;20015;-85
2023/08/28 05:43:07;;;;;;;0.00;0.00;;;12.20;99.90;;;;;;6217223;23;20399;-82
2023/08/28 05:45:32;;;;;;;0.00;0.00;;;;;;;;;;6218099;23;20091;-87
2023/08/28 05:47:59;;;;;;;0.00;0.00;;;;;;;;;;6217727;23;20000;-83
2023/08/28 05:50:25;;;;;;;0.05;0.05;;;;;;;;;;6216993;23;20387;-84
2023/08/28 05:52:51;;;;;;;0.00;0.00;;;;;;;;;;6217858;23;20008;-84
2023/08/28 05:55:17;;;;;;;0.00;0.00;;;12.60;99.90;;;;;;6217612;23;20331;-83
2023/08/28 05:57:42;;;;;;;0.00;0.00;;;12.80;99.90;;;;;;6217546;22;20008;-84
2023/08/28 06:00:08;;;;;;;0.00;0.00;;;12.70;99.90;;;;;;6217765;23;20008;-85
2023/08/28 06:02:34;;;;;;;0.00;0.00;;;12.70;99.90;;;;;;6217568;23;20007;-85
2023/08/28 06:05:00;;;;;;;0.00;0.00;;;12.80;99.90;;;;;;6216693;23;20080;-86
2023/08/28 06:07:26;;;;;;;0.00;0.00;;;12.80;99.90;;;;;;6216815;23;20062;-83
2023/08/28 06:09:52;;;;;;;0.00;0.00;;;;;;;;;;6217153;23;20000;-83
2023/08/28 06:12:17;;;;;;;0.00;0.00;;;12.80;99.90;;;;;;6215825;23;20015;-85
2023/08/28 06:14:43;;;;;;;0.00;0.00;;;;;;;;;;6216911;23;20428;-85
2023/08/28 06:17:09;;;;;;;0.00;0.00;;;12.90;99.90;;;;;;6243179;23;20335;-85
2023/08/28 06:19:34;;;;;;;0.00;0.00;;;12.90;99.90;;;;;;6217285;23;20495;-85
2023/08/28 06:22:04;;;;;;;0.00;0.00;;;13.00;99.90;;;;;;6243975;23;19996;-85
2023/08/28 06:24:30;;;;;;;0.00;0.00;;;13.10;99.90;;;;;;6215127;23;20069;-85
2023/08/28 06:26:56;;;;;;;0.00;0.00;;;;;;;;;;6217008;23;20059;-84
2023/08/28 06:29:21;;;;;;;0.00;0.00;;;13.10;99.90;;;;;;6216626;23;20004;-85
2023/08/28 06:31:47;;;;;;;0.00;0.00;;;13.10;99.90;;;;;;6216718;23;20092;-85
2023/08/28 06:34:14;;;;;;;0.10;0.10;;;13.10;99.90;;;;;;6215740;23;20004;-84
2023/08/28 06:36:40;;;;;;;0.00;0.00;;;13.20;99.90;;;;;;6216638;23;20012;-85
2023/08/28 06:39:07;;;;;;;0.00;0.00;;;;;;;;;;6243144;22;20007;-87
2023/08/28 06:41:32;;;;;;;0.10;0.10;;;;;;;;;;6216938;23;20431;-85
2023/08/28 06:44:00;;;;;;;0.00;0.00;;;;;;;;;;6215995;23;20035;-85
2023/08/28 06:46:25;;;;;;;0.00;0.00;;;13.50;99.90;;;;;;6216259;23;19996;-85
2023/08/28 06:48:52;;;;;;;0.00;0.00;;;13.60;99.90;;;;;;6215704;23;20004;-83
2023/08/28 06:51:19;;;;;;;0.00;0.00;;;;;;;;;;6216072;23;20167;-85
2023/08/28 06:53:44;;;;;;;0.00;0.00;;;;;;;;;;6216272;23;20008;-83
2023/08/28 06:56:10;;;;;;;0.00;0.00;;;;;;;;;;6216016;23;20390;-85
2023/08/28 06:58:36;;;;;;;0.00;0.00;;;;;;;;;;6243174;22;20813;-85
2023/08/28 07:01:02;;;;;;;0.00;0.00;;;13.80;99.90;;;;;;6216435;23;20082;-85
2023/08/28 07:03:28;;;;;;;0.00;0.00;;;;;;;;;;6216308;23;20725;-84
2023/08/28 07:05:54;;;;;;;0.03;0.03;;;;;;;;;;6216259;23;20149;-84
2023/08/28 07:08:20;;;;;;;0.00;0.00;;;;;;;;;;6215683;22;19988;-84
2023/08/28 07:10:46;;;;;;;0.00;0.00;;;;;;;;;;6186805;23;20013;-83
2023/08/28 07:13:11;;;;;;;0.00;0.00;;;14.20;99.90;;;;;;6186950;23;20059;-85
2023/08/28 07:15:40;;;;;;;0.00;0.00;;;14.40;99.90;;;;;;6187435;23;20019;-82
2023/08/28 07:18:06;;;;;;;0.00;0.00;;;;;;;;;;6187855;23;20009;-83
2023/08/28 07:20:32;;;;;;;0.00;0.00;;;;;;;;;;6187508;23;20143;-86
2023/08/28 07:22:58;;;;;;;0.00;0.00;;;;;;;;;;6186928;23;20015;-84
2023/08/28 07:25:24;;;;;;;0.00;0.00;;;14.90;99.90;;;;;;6187129;23;20007;-82
2023/08/28 07:27:50;;;;;;;0.00;0.00;;;15.10;99.90;;;;;;6187577;23;20104;-83
2023/08/28 07:30:16;;;;;;;0.00;0.00;;;15.40;99.90;;;;;;6186197;23;20376;-83
2023/08/28 07:32:42;;;;;;;0.00;0.00;;;;;;;;;;6188158;23;20012;-83
2023/08/28 07:35:08;;;;;;;0.00;0.00;;;15.80;99.90;;;;;;6186377;23;20425;-84
2023/08/28 07:37:34;;;;;;;0.00;0.00;;;15.90;99.90;;;;;;6186848;23;20092;-82
2023/08/28 07:40:00;;;;;;;0.00;0.00;;;15.90;99.90;;;;;;6187900;23;20082;-83
2023/08/28 07:42:25;;;;;;;0.00;0.00;;;16.10;99.90;;;;;;6189141;23;20008;-85
2023/08/28 07:44:51;;;;;;;0.00;0.00;;;16.30;99.90;;;;;;6183097;23;20009;-83
2023/08/28 07:47:18;;;;;;;0.00;0.00;;;16.50;99.90;;;;;;6214975;23;20609;-84
2023/08/28 07:49:43;;;;;;;0.08;0.08;;;16.50;99.90;;;;;;6187611;23;20457;-84
2023/08/28 07:52:09;;;;;;;0.00;0.00;;;16.50;99.90;;;;;;6187882;23;20084;-84
2023/08/28 07:54:36;;;;;;;0.00;0.00;;;;;;;;;;6186903;23;20432;-82
2023/08/28 07:57:03;;;;;;;0.00;0.00;;;16.20;99.90;;;;;;6186192;23;20079;-84
2023/08/28 07:59:29;;;;;;;0.00;0.00;;;;;;;;;;6187260;23;20463;-83
2023/08/28 08:01:57;;;;;;;0.00;0.00;;;;;;;;;;6188949;23;20000;-82
2023/08/28 08:04:23;;;;;;;0.00;0.00;;;16.20;99.90;;;;;;6214579;23;20339;-83
2023/08/28 08:06:49;;;;;;;0.00;0.00;;;;;;;;;;6186715;23;20043;-83
2023/08/28 08:09:15;;;;;;;0.00;0.00;;;;;;;;;;6194913;23;20048;-82
2023/08/28 08:11:41;;;;;;;0.00;0.00;;;;;;;;;;6214194;23;20005;-86
2023/08/28 08:14:06;;;;;;;0.00;0.00;;;16.50;99.90;;;;;;6213170;23;20005;-84
2023/08/28 08:16:32;;;;;;;0.00;0.00;;;16.70;99.90;;;;;;6213007;23;20004;-82
2023/08/28 08:18:58;;;;;;;0.00;0.00;;;;;;;;;;6212982;23;20011;-84
2023/08/28 08:21:23;;;;;;;0.00;0.00;;;17.20;99.90;;;;;;6213878;23;20007;-83
2023/08/28 08:23:49;;;;;;;0.00;0.00;;;17.20;99.90;;;;;;6212931;23;20011;-83
2023/08/28 08:26:15;;;;;;;0.00;0.00;;;17.10;99.90;;;;;;6212395;23;19997;-83
2023/08/28 08:28:41;;;;;;;0.00;0.00;;;17.10;99.90;;;;;;6212249;23;20015;-83
2023/08/28 08:31:06;;;;;;;0.00;0.00;;;;;;;;;;6211991;23;20074;-83
2023/08/28 08:33:32;;;;;;;0.00;0.00;;;17.30;99.90;;;;;;6212281;23;20076;-83
2023/08/28 08:35:58;;;;;;;0.00;0.00;;;;;;;;;;6212919;23;20498;-84
2023/08/28 08:38:24;;;;;;;0.00;0.00;;;;;;;;;;6210889;23;20036;-82
2023/08/28 08:40:52;;;;;;;0.00;0.00;;;17.20;99.90;;;;;;6212687;23;20329;-84
2023/08/28 08:43:19;;;;;;;0.00;0.00;;;17.20;99.90;;;;;;6213113;23;20070;-84
2023/08/28 08:45:47;;;;;;;0.00;0.00;;;17.40;99.90;;;;;;6211553;23;20083;-82
2023/08/28 08:48:17;;;;;;;0.00;0.00;;;17.50;99.90;;;;;;6212299;23;20012;-83
2023/08/28 08:50:44;;;;;;;0.00;0.00;;;19.00;99.90;;;;;;6212403;23;20078;-82
2023/08/28 08:53:26;;;;;;;0.00;0.00;;;17.30;99.90;;;;;;6212377;23;20558;-84
2023/08/28 08:55:57;;;;;;;0.00;0.00;;;17.10;99.90;;;;;;6212069;23;20499;-84
2023/08/28 08:58:23;;;;;;;0.00;0.00;;;17.20;99.90;;;;;;6212108;23;20015;-83
2023/08/28 09:00:50;;;;;;;0.00;0.00;;;17.30;99.90;;;;;;6212685;23;20005;-84
2023/08/28 09:03:17;;;;;;;0.00;0.00;;;17.10;99.90;;;;;;6212262;23;20104;-82
2023/08/28 09:05:44;;;;;;;0.00;0.00;;;17.00;99.90;;;;;;6212700;23;19997;-84
2023/08/28 09:08:12;;;;;;;0.00;0.00;;;17.00;99.90;;;;;;6213595;23;20007;-84
2023/08/28 09:10:37;;;;;;;0.00;0.00;;;17.00;99.90;;;;;;6188041;23;20379;-82
2023/08/28 09:13:04;;;;;;;0.00;0.00;;;18.30;99.90;;;;;;6213984;23;20011;-84
2023/08/28 09:15:29;;;;;;;0.00;0.00;;;17.30;99.90;;;;;;6187037;23;20008;-82
2023/08/28 09:17:55;;;;;;;0.00;0.00;;;;;;;;;;6187734;23;20012;-84
2023/08/28 09:20:21;;;;;;;0.00;0.00;;;17.20;99.90;;;;;;6207992;23;20142;-86
2023/08/28 09:22:53;;;;;;;0.00;0.00;;;17.20;99.90;;;;;;6183914;23;20071;-85
2023/08/28 09:25:19;;;;;;;0.00;0.00;;;17.40;99.90;;;;;;6186077;23;20032;-87
2023/08/28 09:27:46;;;;;;;0.00;0.00;;;17.40;99.90;;;;;;6185741;23;19996;-87
2023/08/28 09:30:32;;;;;;;0.00;0.00;;;17.40;99.90;;;;;;6185262;23;20059;-86
2023/08/28 09:33:00;;;;;;;0.00;0.00;;;17.30;99.90;;;;;;6186900;23;20024;-86
2023/08/28 09:35:34;;;;;;;0.00;0.00;;;17.40;99.90;;;;;;6183530;23;20487;-87
2023/08/28 09:38:00;;;;;;;0.00;0.00;;;17.40;99.90;;;;;;6186407;23;20024;-87
2023/08/28 09:40:32;;;;;;;0.00;0.00;;;17.40;99.90;;;;;;6185489;23;20035;-85
2023/08/28 09:42:58;;;;;;;0.00;0.00;;;17.60;99.90;;;;;;6186001;23;20070;-86
2023/08/28 09:45:31;;;;;;;0.00;0.00;;;17.50;99.90;;;;;;6186326;23;20015;-84
2023/08/28 09:47:56;;;;;;;0.00;0.00;;;17.50;99.90;;;;;;6161065;23;20005;-85
2023/08/28 09:50:29;;;;;;;0.00;0.00;;;17.70;99.90;;;;;;6186287;23;20039;-86
2023/08/28 09:53:06;;;;;;;0.00;0.00;;;17.70;99.90;;;;;;6186465;23;20254;-86
2023/08/28 09:55:32;;;;;;;0.00;0.00;;;18.00;99.90;;;;;;6185632;23;20004;-85
2023/08/28 09:57:58;;;;;;;0.00;0.00;;;;;;;;;;6185999;23;20075;-85
2023/08/28 10:00:23;;;;;;;0.00;0.00;;;18.30;99.90;;;;;;6182722;23;20040;-86
2023/08/28 10:02:51;;;;;;;0.00;0.00;;;18.50;99.90;;;;;;6184624;23;20008;-88
2023/08/28 10:05:18;;;;;;;0.00;0.00;;;18.60;99.90;;;;;;6184997;23;20458;-85
2023/08/28 10:07:46;;;;;;;0.00;0.00;;;18.80;99.90;;;;;;6183458;23;20028;-85
2023/08/28 10:10:15;;;;;;;0.00;0.00;;;18.60;99.90;;;;;;6205946;23;20009;-88
2023/08/28 10:12:44;;;;;;;0.00;0.00;;;18.80;99.90;;;;;;6211917;23;20388;-84
2023/08/28 10:15:11;;;;;;;0.00;0.00;;;20.30;99.90;;;;;;6210797;23;20004;-86
2023/08/28 10:17:39;;;;;;;0.00;0.00;;;19.10;99.90;;;;;;6210566;23;20031;-86
2023/08/28 10:20:08;;;;;;;0.00;0.00;;;19.20;99.90;;;;;;6209739;23;20004;-87
2023/08/28 10:22:36;;;;;;;0.00;0.00;;;19.20;99.90;;;;;;6210502;23;20091;-86
2023/08/28 10:25:02;;;;;;;0.00;0.00;;;19.00;99.90;;;;;;6210879;23;20039;-85
2023/08/28 10:27:28;;;;;;;0.00;0.00;;;19.10;99.90;;;;;;6210927;23;20313;-85
2023/08/28 10:29:54;;;;;;;0.00;0.00;;;;;;;;;;6209875;23;20103;-84
2023/08/28 10:32:21;;;;;;;0.00;0.00;;;19.50;99.90;;;;;;6211346;23;20280;-86
2023/08/28 10:34:48;;;;;;;0.00;0.00;;;19.60;99.90;;;;;;6211276;23;20005;-87
2023/08/28 10:37:14;;;;;;;0.00;0.00;;;19.70;99.90;;;;;;6209560;23;20000;-87
2023/08/28 10:39:42;;;;;;;0.00;0.00;;;19.90;99.90;;;;;;6211896;23;20051;-86
2023/08/28 10:42:17;;;;;;;0.00;0.00;;;20.90;99.90;;;;;;6213679;23;20001;-86
2023/08/28 10:44:44;;;;;;;0.00;0.00;;;20.30;99.90;;;;;;6210606;23;20313;-86
2023/08/28 10:47:15;;;;;;;0.00;0.00;;;20.50;99.90;;;;;;6211933;23;20439;-86
2023/08/28 10:49:40;;;;;;;0.00;0.00;;;20.70;99.90;;;;;;6212361;23;20091;-86
2023/08/28 10:52:06;;;;;;;0.00;0.00;;;;;;;;;;6212309;23;20028;-84
2023/08/28 10:54:40;;;;;;;0.00;0.00;;;20.90;99.90;;;;;;6212632;23;20004;-86
2023/08/28 10:57:21;;;;;;;0.00;0.00;;;20.90;99.90;;;;;;6212195;23;20404;-87
2023/08/28 10:59:48;;;;;;;0.00;0.00;;;21.00;99.90;;;;;;6212542;23;20005;-85
2023/08/28 11:02:13;;;;;;;0.00;0.00;;;20.80;99.90;;;;;;6212746;23;20012;-87
2023/08/28 11:04:40;;;;;;;0.00;0.00;;;20.90;99.90;;;;;;6212554;23;20043;-85
2023/08/28 11:07:27;;;;;;;0.00;0.00;;;20.90;99.90;;;;;;6212467;23;20584;-86
2023/08/28 11:10:20;;;;;;;0.00;0.00;;;21.10;99.90;;;;;;6212301;23;20083;-88
2023/08/28 11:12:59;;;;;;;0.00;0.00;;;21.10;99.90;;;;;;6213350;23;20502;-87
2023/08/28 11:15:30;;;;;;;0.00;0.00;;;21.00;99.90;;;;;;6213786;23;20046;-88
2023/08/28 11:18:26;;;;;;;0.00;0.00;;;21.00;99.90;;;;;;6212453;23;20001;-87
2023/08/28 11:20:54;;;;;;;0.00;0.00;;;20.80;99.90;;;;;;6213138;23;20005;-85
2023/08/28 11:23:25;;;;;;;0.00;0.00;;;20.80;99.90;;;;;;6213953;23;20004;-83
2023/08/28 11:25:51;;;;;;;0.00;0.00;;;20.90;99.90;;;;;;6214008;23;20032;-84
2023/08/28 11:28:25;;;;;;;0.00;0.00;;;21.30;99.90;;;;;;6213134;23;20503;-84
2023/08/28 11:30:50;;;;;;;0.00;0.00;;;21.30;99.90;;;;;;6215117;23;20393;-84
2023/08/28 11:33:18;;;;;;;0.00;0.00;;;21.40;99.90;;;;;;6212420;23;20040;-85
2023/08/28 11:35:44;;;;;;;0.00;0.00;;;22.80;99.90;;;;;;6213610;23;20519;-84
2023/08/28 11:38:10;;;;;;;0.00;0.00;;;21.70;99.90;;;;;;6212068;23;20058;-83
2023/08/28 11:40:35;;;;;;;0.00;0.00;;;21.80;99.90;;;;;;6213046;23;20015;-85
2023/08/28 11:43:06;;;;;;;0.00;0.00;;;21.70;99.90;;;;;;6213564;23;20339;-84
2023/08/28 11:45:32;;;;;;;0.00;0.00;;;21.50;99.90;;;;;;6215628;23;20005;-84
2023/08/28 11:48:03;;;;;;;0.00;0.00;;;21.70;99.90;;;;;;6212966;23;20074;-84
2023/08/28 11:50:29;;;;;;;0.00;0.00;;;21.40;99.90;;;;;;6214170;23;20487;-84
2023/08/28 11:52:54;;;;;;;0.00;0.00;;;22.60;99.90;;;;;;6215176;23;20012;-85
2023/08/28 11:55:20;;;;;;;0.00;0.00;;;21.10;99.90;;;;;;6213228;23;20012;-84
2023/08/28 11:57:48;;;;;;;0.00;0.00;;;21.20;99.90;;;;;;6214849;23;20316;-85
2023/08/28 12:00:15;;;;;;;0.00;0.00;;;21.10;99.90;;;;;;6213203;23;20004;-84
2023/08/28 12:02:43;;;;;;;0.00;0.00;;;20.90;99.90;;;;;;6203966;23;20666;-86
2023/08/28 12:05:10;;;;;;;0.00;0.00;;;21.00;99.90;;;;;;6212522;23;20340;-88
2023/08/28 12:07:36;;;;;;;0.00;0.00;;;21.30;99.90;;;;;;6212979;23;20398;-85
2023/08/28 12:10:03;;;;;;;0.00;0.00;;;21.40;99.90;;;;;;6214360;23;20044;-82
2023/08/28 12:12:29;;;;;;;0.00;0.00;;;21.40;99.90;;;;;;6213120;23;20070;-82
2023/08/28 12:14:55;;;;;;;0.00;0.00;;;;;;;;;;6209738;23;20004;-84
2023/08/28 12:17:26;;;;;;;0.00;0.00;;;21.30;99.90;;;;;;6213307;23;20028;-82
2023/08/28 12:19:53;;;;;;;0.00;0.00;;;21.30;99.90;;;;;;6211656;23;20012;-84
2023/08/28 12:22:22;;;;;;;0.00;0.00;;;21.40;99.90;;;;;;6212127;23;20011;-84
2023/08/28 12:24:49;;;;;;;0.00;0.00;;;21.50;99.90;;;;;;6212502;23;20000;-84
2023/08/28 12:27:16;;;;;;;0.00;0.00;;;21.50;99.90;;;;;;6214152;23;20001;-83
2023/08/28 12:29:43;;;;;;;0.00;0.00;;;21.50;99.90;;;;;;6215246;23;20531;-83
2023/08/28 12:32:17;;;;;;;0.00;0.00;;;21.30;99.90;;;;;;6214123;23;20059;-86
2023/08/28 12:34:44;;;;;;;0.00;0.00;;;21.00;99.30;;;;;;6214640;23;20062;-83
2023/08/28 12:37:11;;;;;;;0.00;0.00;;;21.10;99.70;;;;;;6213570;23;20424;-85
2023/08/28 12:39:49;;;;;;;0.00;0.00;;;21.20;99.70;;;;;;6214634;23;20512;-83
2023/08/28 12:42:16;;;;;;;0.00;0.00;;;21.40;99.90;;;;;;6214267;23;20062;-82
2023/08/28 12:44:43;;;;;;;0.00;0.00;;;21.90;99.90;;;;;;6214131;23;20009;-84
2023/08/28 12:47:13;;;;;;;0.00;0.00;;;21.80;99.90;;;;;;6214527;23;20032;-81
2023/08/28 12:49:40;;;;;;;0.00;0.00;;;22.00;99.90;;;;;;6213456;23;20336;-85
2023/08/28 12:52:09;;;;;;;0.00;0.00;;;22.30;98.30;;;;;;6214137;23;20011;-83
2023/08/28 12:54:39;;;;;;;0.00;0.00;;;22.00;98.40;;;;;;6214036;23;20000;-84
2023/08/28 12:57:05;;;;;;;0.00;0.00;;;23.00;98.30;;;;;;6213407;23;20288;-85
2023/08/28 12:59:31;;;;;;;0.00;0.00;;;21.80;99.30;;;;;;6213240;23;20384;-85
2023/08/28 13:01:57;;;;;;;0.00;0.00;;;22.60;97.60;;;;;;6212889;23;20008;-83
2023/08/28 13:04:23;;;;;;;0.00;0.00;;;;;;;;;;6211692;23;20601;-84
2023/08/28 13:06:49;;;;;;;0.00;0.00;;;22.20;98.30;;;;;;6212954;23;20024;-85
2023/08/28 13:09:15;;;;;;;0.00;0.00;;;22.20;98.30;;;;;;6212581;23;20059;-84
2023/08/28 13:11:40;;;;;;;0.00;0.00;;;22.30;98.60;;;;;;6213650;23;20063;-86
2023/08/28 13:14:06;;;;;;;0.00;0.00;;;22.80;98.30;;;;;;6214791;23;20013;-84
2023/08/28 13:16:32;;;;;;;0.00;0.00;;;;;;;;;;6214421;23;20008;-85